Altamonte Springs, Florida
Current Conditions -  °F | °C
As of 1:53 AM on Saturday 25 Oct 2014 (Local Time) from KORL Reporting Station
Clear Clear  
Wind Chill: 18°   Ceiling: Unl
Heat Index: 18°   Visibility: 10mi
Dew Point: 14°   Wind: 7mph
Humidity: 75%   Direction: 340°NNW
Pressure: 29.96"   Gusts: NA
Location:  28.67°N, 81.36°W
Report Text: KORL 250553Z AUTO 34006KT 10SM CLR 18/14 A2996 RMK AO2 SLP149 T01830139 10228 20183 58008
Loading
Personal Weather Stations






























Interactive Weather Map
Tropical Storm Tracking
New forecast layout! Learn more

10-Day Weather Forecast

Advertisements
Track Severe Weather on mobile